Arlen Cuss wrote:
> [Note:  parts of this message were removed to make it a legal post.]
> 
>>> getMetar("KBFL")
> 230 Login successful.
> 227 Entering Passive Mode (140,90,128,71,21,205)
> => ["2008/02/21 03:54", "KBFL 210354Z 00000KT 10SM CLR 09/06 A3005 RMK AO2
> SLP176 T00890061"]
> 
> Works for me! :)
> 
> Arlen
> 

Thanks very much, any ideas why it doesn't for me?

-- 

Knute Johnson
email s/nospam/knute/

--
Posted via NewsDemon.com - Premium Uncensored Newsgroup Service
      ------->>>>>>http://www.NewsDem